createdAt,value
2022-12-04T00:00:08.937Z,8.97
2022-12-04T00:02:36.246Z,9.10
2022-12-04T00:05:05.299Z,7.83
2022-12-04T00:07:32.234Z,8.80
2022-12-04T00:09:59.042Z,10.17
2022-12-04T00:12:26.057Z,13.60
2022-12-04T00:17:41.551Z,12.30
2022-12-04T00:20:16.580Z,8.87
2022-12-04T00:22:43.351Z,10.83
2022-12-04T00:25:10.317Z,9.27
2022-12-04T00:27:37.064Z,11.23
2022-12-04T00:30:04.321Z,8.30
2022-12-04T00:32:31.162Z,9.47
2022-12-04T00:34:58.018Z,9.70
2022-12-04T00:37:24.780Z,10.87
2022-12-04T00:39:51.687Z,10.67
2022-12-04T00:42:18.529Z,10.20
2022-12-04T00:44:45.294Z,9.37
2022-12-04T00:47:12.049Z,10.97
2022-12-04T00:49:38.809Z,11.37
2022-12-04T00:52:05.644Z,11.30
2022-12-04T00:54:32.430Z,9.70
2022-12-04T00:56:59.172Z,7.43
2022-12-04T00:59:25.965Z,11.50
2022-12-04T01:01:52.720Z,11.77
2022-12-04T01:04:19.829Z,10.80
2022-12-04T01:06:46.859Z,12.73
2022-12-04T01:09:13.674Z,10.90
2022-12-04T01:11:40.429Z,12.23
2022-12-04T01:14:07.281Z,11.03
2022-12-04T01:16:36.887Z,10.87
2022-12-04T01:19:05.401Z,9.83
2022-12-04T01:21:32.421Z,11.53
2022-12-04T01:23:59.784Z,15.67
2022-12-04T01:26:27.416Z,10.60
2022-12-04T01:28:54.369Z,12.47
2022-12-04T01:31:22.890Z,9.77
2022-12-04T01:33:50.328Z,14.50
2022-12-04T01:36:21.013Z,13.00
2022-12-04T01:38:47.968Z,13.17
2022-12-04T01:41:16.685Z,11.70
2022-12-04T01:43:43.790Z,10.67
2022-12-04T01:46:11.695Z,11.83
2022-12-04T01:48:46.742Z,14.40
2022-12-04T01:51:28.487Z,12.63
2022-12-04T01:54:00.756Z,14.23
2022-12-04T01:56:44.658Z,16.83
2022-12-04T01:59:13.244Z,14.20
2022-12-04T02:01:57.250Z,16.00
2022-12-04T02:04:24.372Z,12.70
2022-12-04T02:06:51.469Z,13.67
2022-12-04T02:09:24.636Z,12.27
2022-12-04T02:12:08.031Z,11.10
2022-12-04T02:14:53.106Z,13.50
2022-12-04T02:17:33.326Z,14.70
2022-12-04T02:20:17.695Z,14.80
2022-12-04T02:23:09.466Z,12.83
2022-12-04T02:25:48.370Z,11.73
2022-12-04T02:28:31.535Z,12.87
2022-12-04T02:31:01.280Z,11.50
2022-12-04T02:33:41.433Z,15.37
2022-12-04T02:36:15.369Z,11.93
2022-12-04T02:38:47.322Z,10.87
2022-12-04T02:42:05.162Z,15.10
2022-12-04T02:44:38.713Z,14.87
2022-12-04T02:47:12.587Z,14.43
2022-12-04T02:49:46.955Z,13.80
2022-12-04T02:52:20.971Z,16.10
2022-12-04T02:54:53.060Z,18.80
2022-12-04T02:57:25.783Z,16.07
2022-12-04T02:59:55.098Z,15.93
2022-12-04T03:02:29.699Z,17.40
2022-12-04T03:05:00.272Z,13.73
2022-12-04T03:07:54.124Z,17.80
2022-12-04T03:10:38.570Z,16.27
2022-12-04T03:13:14.116Z,17.17
2022-12-04T03:15:50.529Z,16.27
2022-12-04T03:18:28.622Z,18.53
2022-12-04T03:21:02.682Z,17.77
2022-12-04T03:23:35.388Z,20.43
2022-12-04T03:26:09.822Z,16.47
2022-12-04T03:28:59.685Z,18.67
2022-12-04T03:31:47.974Z,19.57
2022-12-04T03:34:25.251Z,19.27
2022-12-04T03:37:05.964Z,18.13
2022-12-04T03:39:44.385Z,18.27
2022-12-04T03:42:21.703Z,14.53
2022-12-04T03:45:20.086Z,17.73
2022-12-04T03:48:01.360Z,17.00
2022-12-04T03:50:43.017Z,19.67
2022-12-04T03:53:20.838Z,20.27
2022-12-04T03:56:02.032Z,17.87
2022-12-04T03:58:32.566Z,17.87
2022-12-04T04:01:01.378Z,16.63
2022-12-04T04:03:34.102Z,16.00
2022-12-04T04:06:09.630Z,18.00
2022-12-04T04:08:40.665Z,16.87
2022-12-04T04:11:31.082Z,16.43
2022-12-04T04:14:26.258Z,17.07
2022-12-04T04:17:20.776Z,19.70
2022-12-04T04:20:12.817Z,19.67
2022-12-04T04:22:59.377Z,19.70
2022-12-04T04:25:28.411Z,17.60
2022-12-04T04:27:57.027Z,23.93
2022-12-04T04:30:24.919Z,19.00
2022-12-04T04:33:13.211Z,16.07
2022-12-04T04:35:53.460Z,17.17
2022-12-04T04:38:44.831Z,16.37
2022-12-04T04:41:16.308Z,18.87
2022-12-04T04:43:58.449Z,19.83
2022-12-04T04:46:33.398Z,18.70
2022-12-04T04:49:03.954Z,18.57
2022-12-04T04:51:33.916Z,20.07
2022-12-04T04:54:06.448Z,20.77
2022-12-04T04:56:44.298Z,16.87
2022-12-04T04:59:11.675Z,19.73
2022-12-04T05:01:39.644Z,18.20
2022-12-04T05:04:07.418Z,18.10
2022-12-04T05:06:34.539Z,17.27
2022-12-04T05:09:01.403Z,17.93
2022-12-04T05:11:28.533Z,16.87
2022-12-04T05:13:55.340Z,18.03
2022-12-04T05:16:22.677Z,18.90
2022-12-04T05:19:08.441Z,17.13
2022-12-04T05:21:35.762Z,19.10
2022-12-04T05:24:02.557Z,20.73
2022-12-04T05:26:29.439Z,18.10
2022-12-04T05:28:56.197Z,20.57
2022-12-04T05:31:23.045Z,16.90
2022-12-04T05:33:49.792Z,19.27
2022-12-04T05:36:16.585Z,17.07
2022-12-04T05:38:43.465Z,20.67
2022-12-04T05:41:10.633Z,19.13
2022-12-04T05:43:37.514Z,20.53
2022-12-04T05:46:06.782Z,14.70
2022-12-04T05:48:35.531Z,19.43
2022-12-04T05:51:10.430Z,17.50
2022-12-04T05:53:38.363Z,16.77
2022-12-04T05:56:07.405Z,18.17
2022-12-04T05:58:36.523Z,14.73
2022-12-04T06:01:15.961Z,18.77
2022-12-04T06:03:42.960Z,19.47
2022-12-04T06:06:36.077Z,18.93
2022-12-04T06:09:03.409Z,18.33
2022-12-04T06:11:33.645Z,18.77
2022-12-04T06:14:01.900Z,15.00
2022-12-04T06:16:31.952Z,17.80
2022-12-04T06:19:02.422Z,18.63
2022-12-04T06:21:31.924Z,14.83
2022-12-04T06:23:59.027Z,16.37
2022-12-04T06:26:26.520Z,15.77
2022-12-04T06:28:57.622Z,14.83
2022-12-04T06:31:27.020Z,17.40
2022-12-04T06:33:55.518Z,15.97
2022-12-04T06:36:22.824Z,17.47
2022-12-04T06:38:50.880Z,18.33
2022-12-04T06:41:21.108Z,13.70
2022-12-04T06:43:48.672Z,19.57
2022-12-04T06:46:19.190Z,18.93
2022-12-04T06:48:46.349Z,21.60
2022-12-04T06:51:30.953Z,15.27
2022-12-04T06:53:58.525Z,17.20
2022-12-04T06:56:28.583Z,14.70
2022-12-04T06:58:57.833Z,17.10
2022-12-04T07:01:27.432Z,16.67
2022-12-04T07:03:55.677Z,13.77
2022-12-04T07:06:28.442Z,16.03
2022-12-04T07:09:00.560Z,17.90
2022-12-04T07:11:27.354Z,13.90
2022-12-04T07:13:54.959Z,13.97
2022-12-04T07:16:23.761Z,14.37
2022-12-04T07:18:53.725Z,14.67
2022-12-04T07:21:22.977Z,15.57
2022-12-04T07:23:51.577Z,16.23
2022-12-04T07:26:19.429Z,15.30
2022-12-04T07:28:46.823Z,14.33
2022-12-04T07:31:16.718Z,15.83
2022-12-04T07:33:43.905Z,15.50
2022-12-04T07:36:13.715Z,15.07
2022-12-04T07:38:41.460Z,16.60
2022-12-04T07:41:10.938Z,15.30
2022-12-04T07:43:38.225Z,17.60
2022-12-04T07:46:08.234Z,18.60
2022-12-04T07:48:35.106Z,15.70
2022-12-04T07:51:14.797Z,17.97
2022-12-04T07:53:42.275Z,19.40
2022-12-04T07:56:10.489Z,18.83
2022-12-04T07:58:37.372Z,19.90
2022-12-04T08:01:16.509Z,19.83
2022-12-04T08:03:48.178Z,22.50
2022-12-04T08:06:19.632Z,20.37
2022-12-04T08:08:47.609Z,21.03
2022-12-04T08:11:16.676Z,24.60
2022-12-04T08:13:44.190Z,20.27
2022-12-04T08:16:12.317Z,20.50
2022-12-04T08:18:40.035Z,22.47
2022-12-04T08:21:12.851Z,22.70
2022-12-04T08:23:41.366Z,21.93
2022-12-04T08:26:08.933Z,18.80
2022-12-04T08:28:38.044Z,26.57
2022-12-04T08:31:14.050Z,21.93
2022-12-04T08:33:42.150Z,27.80
2022-12-04T08:36:11.594Z,29.03
2022-12-04T08:38:38.864Z,24.30
2022-12-04T08:41:08.263Z,24.70
2022-12-04T08:43:35.152Z,22.57
2022-12-04T08:46:08.242Z,25.03
2022-12-04T08:48:35.262Z,27.50
2022-12-04T08:51:04.318Z,29.67
2022-12-04T08:53:32.047Z,24.97
2022-12-04T08:56:01.159Z,25.63
2022-12-04T08:58:28.479Z,28.20
2022-12-04T09:00:56.084Z,30.57
2022-12-04T09:03:27.681Z,24.60
2022-12-04T09:06:00.347Z,27.47
2022-12-04T09:08:27.524Z,28.33
2022-12-04T09:10:54.355Z,25.37
2022-12-04T09:13:21.134Z,29.43
2022-12-04T09:15:47.989Z,27.67
2022-12-04T09:18:14.873Z,25.70
2022-12-04T09:20:41.614Z,28.50
2022-12-04T09:23:08.357Z,27.70
2022-12-04T09:25:36.859Z,27.90
2022-12-04T09:28:04.592Z,28.70
2022-12-04T09:30:31.456Z,29.23
2022-12-04T09:32:58.372Z,25.97
2022-12-04T09:35:25.156Z,28.37
2022-12-04T09:37:51.924Z,29.77
2022-12-04T09:40:48.605Z,26.47
2022-12-04T09:43:30.271Z,30.07
2022-12-04T09:46:02.498Z,27.90
2022-12-04T09:48:36.184Z,26.93
2022-12-04T09:51:06.711Z,26.57
2022-12-04T09:53:45.281Z,29.63
2022-12-04T09:56:16.159Z,31.03
2022-12-04T09:58:51.925Z,27.73
2022-12-04T10:01:21.895Z,32.50
2022-12-04T10:03:50.313Z,26.23
2022-12-04T10:06:32.317Z,29.67
2022-12-04T10:09:09.797Z,28.70
2022-12-04T10:11:42.439Z,31.33
2022-12-04T10:14:47.041Z,28.00
2022-12-04T10:17:41.717Z,29.17
2022-12-04T10:20:40.303Z,30.63
2022-12-04T10:23:33.201Z,30.60
2022-12-04T10:26:03.283Z,29.53
2022-12-04T10:28:35.013Z,29.83
2022-12-04T10:31:04.011Z,29.20
2022-12-04T10:33:51.633Z,27.63
2022-12-04T10:36:22.071Z,28.70
2022-12-04T10:39:04.669Z,29.60
2022-12-04T10:41:45.926Z,27.73
2022-12-04T10:44:16.063Z,32.63
2022-12-04T10:46:45.944Z,30.13
2022-12-04T10:49:24.223Z,31.57
2022-12-04T10:51:52.164Z,29.67
2022-12-04T10:54:23.045Z,27.13
2022-12-04T10:57:07.789Z,29.03
2022-12-04T10:59:35.880Z,27.33
2022-12-04T11:02:31.946Z,31.93
2022-12-04T11:05:03.265Z,32.37
2022-12-04T11:07:44.195Z,29.63
2022-12-04T11:10:26.357Z,35.13
2022-12-04T11:13:02.597Z,32.83
2022-12-04T11:15:30.596Z,33.53
2022-12-04T11:18:26.767Z,33.90
2022-12-04T11:20:59.391Z,32.10
2022-12-04T11:23:29.942Z,32.77
2022-12-04T11:26:05.161Z,32.20
2022-12-04T11:28:41.798Z,30.53
2022-12-04T11:31:16.058Z,34.27
2022-12-04T11:33:54.767Z,34.80
2022-12-04T11:36:27.458Z,39.97
2022-12-04T11:39:18.674Z,30.97
2022-12-04T11:41:45.613Z,32.47
2022-12-04T11:44:26.965Z,28.17
2022-12-04T11:46:56.792Z,29.97
2022-12-04T11:49:25.963Z,29.10
2022-12-04T11:51:58.696Z,29.50
2022-12-04T11:54:28.507Z,26.90
2022-12-04T11:57:16.412Z,28.07
2022-12-04T12:00:17.728Z,31.20
2022-12-04T12:03:05.849Z,28.33
2022-12-04T12:06:00.237Z,25.80
2022-12-04T12:08:53.067Z,28.37
2022-12-04T12:11:28.189Z,29.43
2022-12-04T12:14:07.219Z,28.23
2022-12-04T12:19:45.336Z,29.80
2022-12-04T12:22:21.874Z,25.53
2022-12-04T12:24:56.253Z,27.03
2022-12-04T12:28:04.613Z,29.50
2022-12-04T12:31:02.495Z,25.43
2022-12-04T12:33:43.056Z,24.33
2022-12-04T12:36:13.014Z,25.80
2022-12-04T12:38:45.738Z,24.87
2022-12-04T12:41:24.201Z,31.20
2022-12-04T12:44:02.983Z,26.70
2022-12-04T12:46:37.415Z,24.30
2022-12-04T12:49:13.818Z,25.07
2022-12-04T12:52:05.699Z,24.03
2022-12-04T12:54:55.869Z,26.33
2022-12-04T13:00:15.189Z,24.97
2022-12-04T13:02:54.137Z,27.37
2022-12-04T13:05:27.582Z,25.83
2022-12-04T13:08:20.118Z,21.50
2022-12-04T13:11:16.068Z,25.23
2022-12-04T13:14:03.835Z,25.30
2022-12-04T13:16:45.743Z,26.47
2022-12-04T13:19:23.180Z,24.50
2022-12-04T13:21:55.845Z,21.70
2022-12-04T13:24:37.505Z,22.80
2022-12-04T13:27:27.823Z,24.03
2022-12-04T13:30:14.524Z,26.03
2022-12-04T13:33:02.633Z,21.50
2022-12-04T13:35:35.454Z,20.67
2022-12-04T13:38:14.102Z,22.17
2022-12-04T13:40:51.305Z,22.17
2022-12-04T13:44:00.643Z,27.03
2022-12-04T13:46:42.476Z,21.40
2022-12-04T13:49:18.536Z,24.73
2022-12-04T13:51:47.418Z,26.20
2022-12-04T13:54:14.191Z,21.33
2022-12-04T13:56:46.185Z,19.27
2022-12-04T13:59:28.410Z,22.87
2022-12-04T14:01:58.027Z,20.87
2022-12-04T14:04:46.033Z,24.53
2022-12-04T14:07:34.491Z,20.37
2022-12-04T14:10:22.951Z,21.73
2022-12-04T14:13:02.142Z,22.83
2022-12-04T14:15:32.636Z,24.07
2022-12-04T14:18:11.585Z,20.47
2022-12-04T14:20:39.978Z,18.73
2022-12-04T14:23:15.813Z,18.13
2022-12-04T14:25:42.661Z,18.83
2022-12-04T14:28:42.193Z,17.50
2022-12-04T14:31:28.246Z,17.73
2022-12-04T14:34:27.143Z,18.47
2022-12-04T14:36:56.628Z,18.20
2022-12-04T14:39:45.289Z,23.37
2022-12-04T14:42:33.365Z,26.17
2022-12-04T14:45:02.573Z,23.50
2022-12-04T14:48:03.256Z,16.27
2022-12-04T14:51:02.268Z,17.47
2022-12-04T14:53:48.992Z,16.37
2022-12-04T14:56:26.251Z,18.90
2022-12-04T14:58:53.398Z,20.20
2022-12-04T15:01:29.774Z,16.23
2022-12-04T15:04:01.090Z,15.53
2022-12-04T15:06:33.256Z,18.07
2022-12-04T15:09:21.211Z,18.43
2022-12-04T15:12:15.823Z,18.13
2022-12-04T15:14:47.933Z,16.23
2022-12-04T15:17:17.722Z,17.13
2022-12-04T15:19:44.808Z,20.83
2022-12-04T15:22:28.250Z,18.43
2022-12-04T15:24:56.231Z,23.57
2022-12-04T15:27:32.098Z,18.70
2022-12-04T15:30:02.008Z,18.03
2022-12-04T15:32:31.075Z,17.00
2022-12-04T15:35:02.945Z,23.00
2022-12-04T15:37:31.582Z,18.13
2022-12-04T15:39:59.627Z,22.57
2022-12-04T15:42:30.481Z,17.73
2022-12-04T15:45:07.403Z,18.77
2022-12-04T15:47:41.620Z,20.00
2022-12-04T15:50:15.581Z,21.27
2022-12-04T15:53:09.879Z,17.67
2022-12-04T15:55:48.905Z,20.40
2022-12-04T15:58:22.808Z,18.50
2022-12-04T16:01:05.281Z,20.03
2022-12-04T16:03:43.146Z,19.73
2022-12-04T16:06:33.416Z,19.77
2022-12-04T16:09:17.241Z,19.40
2022-12-04T16:11:44.178Z,19.13
2022-12-04T16:14:15.659Z,17.20
2022-12-04T16:16:47.001Z,19.80
2022-12-04T16:19:33.656Z,16.07
2022-12-04T16:22:02.885Z,20.53
2022-12-04T16:24:29.865Z,21.07
2022-12-04T16:26:58.206Z,19.83
2022-12-04T16:29:25.008Z,19.53
2022-12-04T16:31:52.257Z,19.97
2022-12-04T16:34:19.135Z,17.03
2022-12-04T16:36:46.027Z,19.37
2022-12-04T16:39:12.837Z,18.93
2022-12-04T16:41:40.454Z,17.10
2022-12-04T16:44:14.148Z,20.13
2022-12-04T16:46:41.416Z,16.13
2022-12-04T16:49:12.850Z,17.93
2022-12-04T16:51:45.834Z,17.47
2022-12-04T16:54:13.938Z,18.93
2022-12-04T16:56:41.002Z,15.63
2022-12-04T16:59:11.966Z,16.33
2022-12-04T17:01:46.751Z,14.63
2022-12-04T17:04:14.225Z,16.10
2022-12-04T17:06:41.389Z,16.83
2022-12-04T17:09:08.322Z,16.57
2022-12-04T17:11:35.856Z,15.23
2022-12-04T17:14:06.988Z,15.13
2022-12-04T17:16:38.644Z,12.63
2022-12-04T17:19:05.619Z,12.33
2022-12-04T17:21:32.514Z,11.70
2022-12-04T17:23:59.308Z,11.57
2022-12-04T17:26:26.898Z,11.13
2022-12-04T17:28:54.007Z,11.00
2022-12-04T17:31:27.437Z,10.80
2022-12-04T17:33:56.196Z,10.93
2022-12-04T17:36:25.773Z,9.93
2022-12-04T17:38:57.497Z,12.20
2022-12-04T17:41:25.047Z,11.47
2022-12-04T17:43:51.861Z,12.93
2022-12-04T17:46:24.333Z,10.90
2022-12-04T17:48:51.582Z,10.43
2022-12-04T17:51:23.383Z,12.10
2022-12-04T17:53:50.484Z,10.63
2022-12-04T17:56:20.396Z,10.57
2022-12-04T17:58:48.022Z,12.00
2022-12-04T18:01:23.991Z,11.80
2022-12-04T18:03:56.321Z,12.10
2022-12-04T18:06:24.123Z,15.43
2022-12-04T18:08:51.613Z,13.60
2022-12-04T18:11:21.012Z,12.60
2022-12-04T18:13:49.121Z,14.03
2022-12-04T18:16:16.055Z,13.50
2022-12-04T18:18:43.995Z,13.17
2022-12-04T18:21:12.614Z,18.77
2022-12-04T18:23:47.189Z,16.63
2022-12-04T18:26:19.490Z,16.93
2022-12-04T18:28:47.148Z,18.70
2022-12-04T18:31:15.455Z,17.93
2022-12-04T18:33:43.448Z,16.30
2022-12-04T18:36:17.756Z,17.63
2022-12-04T18:38:46.029Z,17.10
2022-12-04T18:41:14.530Z,13.43
2022-12-04T18:43:44.686Z,14.37
2022-12-04T18:46:13.740Z,12.87
2022-12-04T18:48:41.666Z,12.53
2022-12-04T18:51:21.958Z,15.87
2022-12-04T18:53:49.567Z,15.37
2022-12-04T18:56:17.560Z,16.87
2022-12-04T18:58:46.545Z,17.43
2022-12-04T19:01:16.176Z,13.77
2022-12-04T19:03:43.154Z,17.73
2022-12-04T19:06:10.178Z,13.57
2022-12-04T19:08:42.678Z,16.57
2022-12-04T19:11:15.603Z,17.27
2022-12-04T19:13:42.987Z,16.50
2022-12-04T19:16:15.012Z,17.50
2022-12-04T19:18:45.226Z,18.27
2022-12-04T19:21:13.799Z,17.30
2022-12-04T19:23:41.501Z,17.63
2022-12-04T19:26:08.558Z,17.43
2022-12-04T19:28:35.929Z,17.47
2022-12-04T19:31:03.342Z,20.47
2022-12-04T19:33:30.665Z,19.40
2022-12-04T19:36:02.826Z,19.40
2022-12-04T19:38:31.078Z,24.17
2022-12-04T19:41:11.531Z,20.60
2022-12-04T19:43:42.174Z,21.50
2022-12-04T19:46:11.955Z,19.67
2022-12-04T19:48:39.166Z,21.13
2022-12-04T19:51:10.496Z,24.87
2022-12-04T19:56:35.155Z,20.13
2022-12-04T19:59:04.702Z,22.83
2022-12-04T20:01:32.310Z,20.13
2022-12-04T20:04:05.213Z,24.23
2022-12-04T20:06:40.321Z,27.40
2022-12-04T20:09:10.610Z,21.13
2022-12-04T20:11:38.411Z,22.23
2022-12-04T20:14:06.689Z,20.03
2022-12-04T20:16:35.151Z,22.53
2022-12-04T20:19:06.242Z,24.47
2022-12-04T20:21:34.151Z,22.53
2022-12-04T20:24:03.377Z,23.47
2022-12-04T20:26:38.021Z,22.67
2022-12-04T20:29:07.196Z,22.60
2022-12-04T20:31:37.261Z,25.00
2022-12-04T20:34:07.212Z,20.87
2022-12-04T20:36:39.634Z,20.70
2022-12-04T20:39:07.419Z,24.37
2022-12-04T20:41:35.731Z,23.70
2022-12-04T20:44:07.092Z,27.10
2022-12-04T20:46:36.698Z,24.17
2022-12-04T20:49:06.371Z,23.13
2022-12-04T20:54:26.637Z,28.17
2022-12-04T20:56:54.051Z,28.07
2022-12-04T20:59:22.706Z,27.17
2022-12-04T21:01:51.603Z,27.07
2022-12-04T21:04:19.268Z,25.73
2022-12-04T21:06:47.148Z,24.97
2022-12-04T21:09:18.070Z,24.50
2022-12-04T21:11:47.784Z,25.13
2022-12-04T21:14:36.583Z,28.87
2022-12-04T21:17:06.856Z,32.77
2022-12-04T21:19:33.822Z,28.73
2022-12-04T21:22:00.685Z,29.83
2022-12-04T21:24:28.658Z,28.37
2022-12-04T21:26:55.917Z,28.93
2022-12-04T21:29:23.539Z,32.60
2022-12-04T21:31:50.991Z,33.80
2022-12-04T21:34:18.318Z,32.27
2022-12-04T21:36:47.035Z,29.40
2022-12-04T21:39:15.106Z,27.60
2022-12-04T21:42:00.942Z,29.30
2022-12-04T21:44:28.006Z,31.47
2022-12-04T21:46:55.070Z,27.97
2022-12-04T21:49:22.442Z,33.50
2022-12-04T21:51:57.214Z,30.67
2022-12-04T21:54:25.847Z,28.93
2022-12-04T21:56:52.752Z,30.47
2022-12-04T21:59:19.661Z,31.13
2022-12-04T22:01:46.551Z,28.83
2022-12-04T22:04:13.567Z,25.90
2022-12-04T22:06:40.521Z,25.27
2022-12-04T22:09:10.083Z,28.97
2022-12-04T22:11:37.662Z,28.13
2022-12-04T22:14:04.810Z,24.10
2022-12-04T22:16:36.907Z,25.57
2022-12-04T22:19:07.055Z,24.77
2022-12-04T22:21:33.836Z,28.80
2022-12-04T22:24:02.436Z,25.77
2022-12-04T22:26:30.224Z,23.57
2022-12-04T22:28:57.724Z,25.13
2022-12-04T22:31:26.469Z,25.17
2022-12-04T22:33:56.032Z,24.60
2022-12-04T22:36:26.671Z,23.40
2022-12-04T22:39:10.422Z,26.10
2022-12-04T22:41:38.008Z,23.33
2022-12-04T22:44:05.658Z,28.67
2022-12-04T22:46:33.075Z,25.60
2022-12-04T22:49:00.329Z,24.93
2022-12-04T22:51:27.667Z,24.23
2022-12-04T22:53:57.572Z,27.23
2022-12-04T22:56:30.569Z,27.03
2022-12-04T22:58:58.489Z,28.47
2022-12-04T23:01:30.396Z,24.00
2022-12-04T23:03:58.207Z,28.77
2022-12-04T23:06:27.351Z,27.33
2022-12-04T23:09:04.892Z,25.90
2022-12-04T23:11:31.764Z,26.13
2022-12-04T23:14:01.003Z,29.07
2022-12-04T23:16:29.480Z,30.10
2022-12-04T23:18:57.140Z,24.87
2022-12-04T23:21:24.893Z,27.67
2022-12-04T23:23:53.253Z,26.67
2022-12-04T23:26:23.570Z,26.87
2022-12-04T23:28:50.767Z,27.27
2022-12-04T23:31:18.350Z,26.83
2022-12-04T23:33:45.349Z,28.80
2022-12-04T23:36:13.717Z,26.87
2022-12-04T23:38:41.865Z,31.07
2022-12-04T23:41:11.336Z,24.40
2022-12-04T23:43:38.800Z,24.90
2022-12-04T23:46:10.880Z,26.70
2022-12-04T23:48:38.890Z,25.50
2022-12-04T23:51:05.968Z,28.23
2022-12-04T23:53:32.739Z,29.97
2022-12-04T23:56:03.010Z,23.53
2022-12-04T23:58:30.938Z,26.20
